Time;durP1;ratioP1;P1;durP2;ratioP2;P2;SDS_P1;SDS_P2;PMS_P1;PMS_P2;Temp;Humidity;BMP_temperature;BMP_pressure;BME280_temperature;BME280_humidity;BME280_pressure;Samples;Min_cycle;Max_cycle;Signal;HPM_P1;HPM_P2
2022/01/17 00:00:53;;;;;;;0.40;0.30;;;;;;;6.25;100.00;101391.75;5099687;28;20942;-76
2022/01/17 00:03:24;;;;;;;0.40;0.30;;;;;;;6.25;100.00;101400.63;5099591;28;20464;-76
2022/01/17 00:05:50;;;;;;;0.40;0.20;;;;;;;6.25;100.00;101397.94;5100022;28;20420;-77
2022/01/17 00:08:17;;;;;;;0.40;0.20;;;;;;;6.25;100.00;101384.47;5099608;28;20933;-76
2022/01/17 00:10:46;;;;;;;0.40;0.30;;;;;;;6.29;100.00;101376.72;5099998;28;20447;-76
2022/01/17 00:13:20;;;;;;;0.40;0.23;;;;;;;6.33;100.00;101385.91;5099711;28;20491;-75
2022/01/17 00:15:50;;;;;;;0.40;0.30;;;;;;;6.38;100.00;101387.84;5099883;28;20427;-75
2022/01/17 00:18:53;;;;;;;0.40;0.30;;;;;;;6.37;100.00;101383.50;5100089;28;20517;-76
2022/01/17 00:21:18;;;;;;;0.40;0.30;;;;;;;6.32;100.00;101379.69;5099293;28;21039;-75
2022/01/17 00:23:45;;;;;;;0.40;0.23;;;;;;;6.36;100.00;101371.13;5099618;28;20456;-75
2022/01/17 00:26:13;;;;;;;0.40;0.30;;;;;;;6.41;100.00;101363.09;5099785;28;20815;-76
2022/01/17 00:28:39;;;;;;;0.40;0.20;;;;;;;6.44;100.00;101370.69;5099695;28;20444;-76
2022/01/17 00:31:06;;;;;;;0.40;0.30;;;;;;;6.47;100.00;101373.69;5099640;28;20451;-75
2022/01/17 00:33:33;;;;;;;0.40;0.20;;;;;;;6.50;100.00;101377.72;5099593;28;20487;-76
2022/01/17 00:35:59;;;;;;;0.40;0.30;;;;;;;6.48;100.00;101379.88;5099771;28;20436;-76
2022/01/17 00:38:25;;;;;;;0.40;0.30;;;;;;;6.49;100.00;101378.78;5099675;28;20577;-76
2022/01/17 00:40:52;;;;;;;0.40;0.30;;;;;;;6.52;100.00;101372.91;5099281;28;20955;-75
2022/01/17 00:43:20;;;;;;;0.40;0.30;;;;;;;6.53;100.00;101358.38;5099578;28;20452;-76
2022/01/17 00:45:46;;;;;;;0.40;0.30;;;;;;;6.58;99.67;101369.19;5099650;28;20448;-76
2022/01/17 00:48:13;;;;;;;0.50;0.30;;;;;;;6.55;99.39;101364.31;5099579;28;20458;-76
2022/01/17 00:50:40;;;;;;;0.40;0.30;;;;;;;6.53;99.01;101369.97;5101118;28;20436;-78
2022/01/17 00:53:08;;;;;;;0.40;0.30;;;;;;;6.55;99.49;101362.47;5101001;28;20862;-76
2022/01/17 00:55:37;;;;;;;1.57;1.37;;;;;;;6.57;99.38;101356.81;5100256;28;20486;-78
2022/01/17 00:58:03;;;;;;;2.57;2.47;;;;;;;6.65;99.20;101367.13;5098779;28;20800;-76
2022/01/17 01:00:31;;;;;;;0.40;0.30;;;;;;;6.65;98.71;101364.44;5098905;28;20463;-77
2022/01/17 01:02:58;;;;;;;0.40;0.20;;;;;;;6.68;98.88;101342.34;5097247;28;20487;-77
2022/01/17 01:05:24;;;;;;;0.40;0.30;;;;;;;6.68;98.78;101336.16;5097449;28;20455;-75
2022/01/17 01:07:53;;;;;;;0.40;0.27;;;;;;;6.71;99.02;101328.41;5096237;28;20467;-77
2022/01/17 01:10:20;;;;;;;0.40;0.30;;;;;;;6.73;98.70;101326.28;5096708;28;20453;-77
2022/01/17 01:12:49;;;;;;;0.40;0.30;;;;;;;6.74;98.33;101335.97;5097040;28;21114;-77
2022/01/17 01:15:20;;;;;;;0.40;0.30;;;;;;;6.76;98.41;101336.50;5097556;28;20452;-77
2022/01/17 01:17:52;;;;;;;0.40;0.30;;;;;;;6.76;98.41;101349.16;5098208;28;20429;-77
2022/01/17 01:20:34;;;;;;;0.40;0.30;;;;;;;6.76;98.56;101341.91;5097384;28;20439;-77
2022/01/17 01:28:29;;;;;;;0.40;0.30;;;;;;;6.72;98.37;101358.81;5097206;28;20408;-76
2022/01/17 01:30:57;;;;;;;0.40;0.20;;;;;;;6.69;98.78;101354.78;5096511;28;20441;-76
2022/01/17 01:33:29;;;;;;;0.40;0.30;;;;;;;6.71;99.27;101351.81;5095669;28;20484;-77
2022/01/17 01:36:01;;;;;;;0.40;0.30;;;;;;;6.73;99.28;101360.44;5096552;28;20526;-76
2022/01/17 01:38:27;;;;;;;0.40;0.30;;;;;;;6.69;98.34;101353.97;5096511;28;20834;-77
2022/01/17 01:40:54;;;;;;;0.40;0.30;;;;;;;6.72;97.80;101345.34;5096773;28;20850;-76
2022/01/17 01:43:21;;;;;;;0.40;0.30;;;;;;;6.74;96.42;101367.47;5098079;28;20456;-77
2022/01/17 01:45:48;;;;;;;0.40;0.30;;;;;;;6.74;96.10;101367.47;5096650;28;20455;-77
2022/01/17 01:48:15;;;;;;;0.40;0.30;;;;;;;6.70;96.17;101367.16;5096722;28;20508;-77
2022/01/17 01:50:42;;;;;;;0.40;0.23;;;;;;;6.73;95.41;101365.81;5098262;28;20456;-77
2022/01/17 01:53:09;;;;;;;0.40;0.30;;;;;;;6.74;94.70;101354.81;5098055;28;20488;-77
2022/01/17 01:55:35;;;;;;;0.40;0.20;;;;;;;6.70;94.92;101350.19;5097333;28;20463;-77
2022/01/17 01:58:02;;;;;;;0.40;0.30;;;;;;;6.66;95.77;101368.75;5097087;28;20440;-78
2022/01/17 02:00:28;;;;;;;0.40;0.30;;;;;;;6.53;96.77;101382.59;5096736;28;20456;-77
2022/01/17 02:02:55;;;;;;;0.40;0.27;;;;;;;6.40;98.53;101393.78;5096114;28;20480;-77
2022/01/17 02:05:21;;;;;;;0.40;0.30;;;;;;;6.16;100.00;101387.88;5096011;28;20788;-77
2022/01/17 02:07:49;;;;;;;0.40;0.30;;;;;;;5.97;100.00;101373.91;5097050;28;20452;-77
2022/01/17 02:10:16;;;;;;;0.40;0.20;;;;;;;5.81;100.00;101379.09;5096549;28;20441;-77
2022/01/17 02:12:42;;;;;;;0.40;0.30;;;;;;;5.73;100.00;101367.94;5096461;28;20488;-77
2022/01/17 02:15:12;;;;;;;0.40;0.20;;;;;;;5.68;100.00;101362.50;5097022;28;20436;-77
2022/01/17 02:17:46;;;;;;;0.40;0.30;;;;;;;5.66;100.00;101337.75;5096180;28;20428;-77
2022/01/17 02:20:20;;;;;;;0.40;0.30;;;;;;;5.61;99.45;101333.13;5094745;28;20428;-77
2022/01/17 02:22:46;;;;;;;0.40;0.23;;;;;;;5.67;97.11;101305.25;5095094;28;20544;-75
2022/01/17 02:25:12;;;;;;;0.40;0.20;;;;;;;5.77;95.02;101281.19;5094925;28;20448;-76
2022/01/17 02:27:39;;;;;;;0.40;0.30;;;;;;;5.82;93.14;101275.84;5094832;28;20844;-76
2022/01/17 02:30:07;;;;;;;0.40;0.30;;;;;;;5.88;93.23;101278.59;5094766;28;20444;-76
2022/01/17 02:32:34;;;;;;;0.40;0.30;;;;;;;5.93;92.04;101276.00;5094300;28;20468;-76
2022/01/17 02:35:15;;;;;;;0.40;0.30;;;;;;;5.97;91.30;101269.03;5094775;28;20471;-75
2022/01/17 02:37:43;;;;;;;0.40;0.30;;;;;;;6.00;90.64;101261.28;5094006;28;20447;-75
2022/01/17 02:40:11;;;;;;;0.40;0.30;;;;;;;6.00;90.73;101260.47;5093971;28;20792;-74
2022/01/17 02:42:37;;;;;;;0.40;0.20;;;;;;;6.05;90.90;101266.72;5093830;28;20977;-74
2022/01/17 02:45:11;;;;;;;0.40;0.20;;;;;;;6.10;89.94;101252.50;5094219;28;20445;-74
2022/01/17 02:47:38;;;;;;;0.40;0.20;;;;;;;6.14;88.61;101260.88;5094228;28;20429;-75
2022/01/17 02:50:06;;;;;;;0.40;0.30;;;;;;;6.16;89.75;101238.06;5094080;28;20440;-75
2022/01/17 02:52:32;;;;;;;0.40;0.30;;;;;;;6.19;88.04;101234.03;5094006;28;20495;-75
2022/01/17 02:55:00;;;;;;;0.40;0.20;;;;;;;6.22;87.41;101236.22;5094060;28;20441;-75
2022/01/17 02:57:28;;;;;;;0.40;0.30;;;;;;;6.22;88.04;101239.72;5093995;28;20451;-74
2022/01/17 02:59:54;;;;;;;0.40;0.30;;;;;;;6.26;86.49;101245.41;5094053;28;20441;-75
2022/01/17 03:02:20;;;;;;;0.40;0.20;;;;;;;6.29;87.38;101242.22;5093622;28;20451;-75
2022/01/17 03:04:47;;;;;;;0.40;0.30;;;;;;;6.28;87.33;101233.28;5093808;28;20445;-75
2022/01/17 03:07:13;;;;;;;0.40;0.27;;;;;;;6.27;87.04;101234.38;5093801;28;20448;-75
2022/01/17 03:09:49;;;;;;;0.40;0.30;;;;;;;6.31;87.65;101218.53;5093742;28;20444;-75
2022/01/17 03:12:16;;;;;;;0.40;0.30;;;;;;;6.31;87.23;101227.41;5093413;28;20853;-75
2022/01/17 03:14:43;;;;;;;0.40;0.30;;;;;;;6.34;86.50;101222.59;5093690;28;20863;-76
2022/01/17 03:17:09;;;;;;;0.40;0.30;;;;;;;6.32;86.48;101231.72;5093653;28;20448;-75
2022/01/17 03:19:36;;;;;;;0.40;0.30;;;;;;;6.31;85.64;101246.25;5093117;28;20472;-75
2022/01/17 03:22:03;;;;;;;0.40;0.20;;;;;;;6.30;85.93;101241.94;5093551;28;20472;-74
2022/01/17 03:24:29;;;;;;;0.40;0.20;;;;;;;6.34;86.26;101233.38;5093911;28;20469;-75
2022/01/17 03:26:56;;;;;;;0.40;0.30;;;;;;;6.35;85.60;101243.06;5093558;28;20487;-75
2022/01/17 03:29:24;;;;;;;0.40;0.30;;;;;;;6.32;86.57;101236.28;5093499;28;20436;-75
2022/01/17 03:31:50;;;;;;;0.40;0.30;;;;;;;6.32;86.18;101226.34;5093506;28;20518;-75
2022/01/17 03:34:16;;;;;;;0.40;0.20;;;;;;;6.29;85.92;101243.03;5093375;28;20483;-75
2022/01/17 03:36:44;;;;;;;0.40;0.20;;;;;;;6.29;85.93;101226.88;5093405;28;20456;-75
2022/01/17 03:39:10;;;;;;;0.40;0.20;;;;;;;6.30;85.81;101225.81;5093375;28;20470;-76
2022/01/17 03:41:37;;;;;;;0.40;0.20;;;;;;;6.31;85.69;101216.66;5093376;28;20452;-75
2022/01/17 03:44:04;;;;;;;0.40;0.20;;;;;;;6.31;86.01;101218.53;5093282;28;20799;-74
2022/01/17 03:46:32;;;;;;;0.40;0.30;;;;;;;6.35;85.52;101208.88;5093341;28;20444;-75
2022/01/17 03:48:59;;;;;;;0.40;0.20;;;;;;;6.35;85.09;101234.97;5093561;28;20459;-75
2022/01/17 03:51:25;;;;;;;0.40;0.30;;;;;;;6.38;85.03;101202.19;5093272;28;20445;-75
2022/01/17 03:53:52;;;;;;;0.40;0.30;;;;;;;6.37;85.29;101203.25;5093127;28;20491;-75
2022/01/17 03:56:18;;;;;;;0.40;0.20;;;;;;;6.34;85.73;101214.53;5093383;28;20455;-77
2022/01/17 03:58:45;;;;;;;0.40;0.30;;;;;;;6.38;86.52;101231.78;5093491;28;20949;-77
2022/01/17 04:01:12;;;;;;;0.40;0.30;;;;;;;6.33;86.38;101208.34;5094283;28;20443;-77
2022/01/17 04:03:40;;;;;;;0.40;0.20;;;;;;;6.30;86.27;101193.53;5094102;28;20471;-76
2022/01/17 04:06:08;;;;;;;0.40;0.20;;;;;;;6.33;86.23;101202.97;5094625;28;20445;-76
2022/01/17 04:08:35;;;;;;;0.40;0.30;;;;;;;6.37;86.21;101216.69;5094801;28;20954;-77
2022/01/17 04:11:01;;;;;;;0.40;0.30;;;;;;;6.39;86.15;101219.94;5095240;28;20469;-77
2022/01/17 04:13:28;;;;;;;0.40;0.30;;;;;;;6.41;86.14;101207.03;5094305;28;20499;-76
2022/01/17 04:15:54;;;;;;;0.40;0.30;;;;;;;6.33;86.31;101227.19;5094403;28;20432;-74
2022/01/17 04:18:23;;;;;;;0.40;0.30;;;;;;;6.35;86.13;101213.47;5093033;28;20459;-75
2022/01/17 04:20:52;;;;;;;0.40;0.20;;;;;;;6.40;86.53;101214.31;5093007;28;20543;-75
2022/01/17 04:23:19;;;;;;;0.40;0.20;;;;;;;6.35;87.28;101227.72;5092972;28;20508;-74
2022/01/17 04:25:45;;;;;;;0.40;0.20;;;;;;;6.39;87.84;101236.91;5092950;28;20480;-74
2022/01/17 04:28:14;;;;;;;0.40;0.23;;;;;;;6.37;87.14;101216.69;5092967;28;20443;-74
2022/01/17 04:30:42;;;;;;;0.40;0.30;;;;;;;6.37;87.97;101214.81;5093000;28;20793;-74
2022/01/17 04:33:09;;;;;;;0.40;0.20;;;;;;;6.39;88.00;101193.03;5096315;28;20873;-75
2022/01/17 04:35:37;;;;;;;0.40;0.30;;;;;;;6.38;88.48;101204.88;5096725;28;20432;-76
2022/01/17 04:38:07;;;;;;;0.40;0.30;;;;;;;6.38;88.72;101203.00;5096639;28;20444;-74
2022/01/17 04:40:36;;;;;;;0.40;0.30;;;;;;;6.37;89.04;101204.03;5096372;28;20455;-74
2022/01/17 04:43:05;;;;;;;0.40;0.30;;;;;;;6.35;89.33;101198.13;5096439;28;20459;-75
2022/01/17 04:45:32;;;;;;;2.67;2.40;;;;;;;6.28;89.87;101198.31;5096196;28;20897;-74
2022/01/17 04:47:59;;;;;;;0.40;0.30;;;;;;;6.31;90.10;101203.19;5096436;28;20428;-75
2022/01/17 04:50:29;;;;;;;0.40;0.30;;;;;;;6.40;89.92;101205.44;5096406;28;20440;-74
2022/01/17 04:52:57;;;;;;;0.40;0.30;;;;;;;6.39;89.63;101193.84;5096314;28;20452;-75
2022/01/17 04:55:25;;;;;;;0.40;0.20;;;;;;;6.40;89.68;101210.81;5096208;28;20492;-74
2022/01/17 04:57:52;;;;;;;0.40;0.30;;;;;;;6.40;90.17;101208.13;5095949;28;20930;-74
2022/01/17 05:00:22;;;;;;;0.40;0.30;;;;;;;6.39;90.14;101166.13;5096232;28;20836;-73
2022/01/17 05:02:48;;;;;;;0.40;0.30;;;;;;;6.35;90.90;101173.91;5095199;28;20480;-74
2022/01/17 05:05:16;;;;;;;0.40;0.20;;;;;;;6.34;90.93;101187.63;5096089;28;20444;-74
2022/01/17 05:07:42;;;;;;;0.40;0.27;;;;;;;6.39;90.82;101171.53;5095780;28;20819;-74
2022/01/17 05:10:11;;;;;;;0.40;0.20;;;;;;;6.40;90.83;101144.34;5096038;28;20448;-74
2022/01/17 05:12:39;;;;;;;0.40;0.20;;;;;;;6.36;90.73;101156.69;5095856;28;20465;-75
2022/01/17 05:15:11;;;;;;;0.40;0.30;;;;;;;6.35;91.43;101155.06;5095872;28;20484;-75
2022/01/17 05:17:43;;;;;;;0.40;0.20;;;;;;;6.37;90.83;101192.47;5095634;28;20429;-75
2022/01/17 05:20:11;;;;;;;0.40;0.20;;;;;;;6.41;90.52;101175.56;5095874;28;20486;-75
2022/01/17 05:22:41;;;;;;;0.40;0.20;;;;;;;6.41;90.79;101166.69;5095776;28;20461;-74
2022/01/17 05:25:10;;;;;;;0.40;0.30;;;;;;;6.43;91.05;101149.22;5095801;28;20444;-75
2022/01/17 05:27:39;;;;;;;0.40;0.30;;;;;;;6.45;91.11;101148.94;5095749;28;20463;-75
2022/01/17 05:30:08;;;;;;;0.40;0.30;;;;;;;6.42;90.94;101141.38;5095284;28;20447;-76
2022/01/17 05:32:34;;;;;;;0.40;0.30;;;;;;;6.43;91.05;101149.22;5095579;28;20521;-74
2022/01/17 05:35:01;;;;;;;0.40;0.30;;;;;;;6.42;91.50;101160.22;5095480;28;20483;-74
2022/01/17 05:37:27;;;;;;;0.40;0.30;;;;;;;6.43;92.08;101145.72;5095559;28;20447;-75
2022/01/17 05:39:54;;;;;;;0.40;0.30;;;;;;;6.44;91.56;101152.72;5095493;28;20493;-75
2022/01/17 05:42:20;;;;;;;0.40;0.30;;;;;;;6.43;91.88;101167.25;5094870;28;20440;-75
2022/01/17 05:44:48;;;;;;;0.40;0.20;;;;;;;6.43;91.95;101167.25;5095397;28;20459;-75
2022/01/17 05:47:15;;;;;;;0.40;0.30;;;;;;;6.42;92.49;101160.22;5095342;28;20837;-74
2022/01/17 05:49:42;;;;;;;0.40;0.20;;;;;;;6.43;92.24;101157.28;5095283;28;20445;-75
2022/01/17 05:52:09;;;;;;;0.40;0.27;;;;;;;6.44;92.10;101153.53;5095178;28;20437;-75
2022/01/17 05:54:36;;;;;;;0.40;0.20;;;;;;;6.46;92.14;101158.63;5095116;28;20491;-74
2022/01/17 05:57:03;;;;;;;0.40;0.30;;;;;;;6.48;91.76;101159.19;5095199;28;20489;-73
2022/01/17 05:59:29;;;;;;;0.40;0.20;;;;;;;6.49;92.20;101174.28;5094861;28;20804;-74
2022/01/17 06:01:57;;;;;;;0.40;0.20;;;;;;;6.50;91.99;101167.81;5095073;28;20457;-75
2022/01/17 06:04:24;;;;;;;0.40;0.20;;;;;;;6.51;92.37;101153.31;5094776;28;20984;-74
2022/01/17 06:06:50;;;;;;;0.40;0.30;;;;;;;6.47;92.31;101142.25;5094725;28;20944;-74
2022/01/17 06:09:17;;;;;;;0.40;0.27;;;;;;;6.47;92.78;101114.53;5094929;28;20448;-73
2022/01/17 06:11:44;;;;;;;0.40;0.30;;;;;;;6.47;92.75;101139.56;5094886;28;20452;-74
2022/01/17 06:14:15;;;;;;;0.40;0.30;;;;;;;6.48;92.91;101121.53;5094298;28;21004;-73
2022/01/17 06:16:42;;;;;;;0.40;0.30;;;;;;;6.51;92.95;101123.72;5094810;28;20433;-73
2022/01/17 06:19:09;;;;;;;0.40;0.20;;;;;;;6.48;93.46;101130.41;5094672;28;20489;-73
2022/01/17 06:21:36;;;;;;;0.40;0.20;;;;;;;6.44;94.57;101129.31;5094664;28;20440;-73
2022/01/17 06:24:04;;;;;;;0.40;0.30;;;;;;;6.36;96.08;101161.25;5094503;28;20468;-73
2022/01/17 06:26:31;;;;;;;0.40;0.20;;;;;;;6.29;97.35;101140.78;5094273;28;20440;-74
2022/01/17 06:28:57;;;;;;;0.40;0.20;;;;;;;6.22;98.35;101142.88;5094524;28;20481;-74
2022/01/17 06:31:24;;;;;;;0.40;0.30;;;;;;;6.12;98.98;101161.63;5094516;28;20565;-74
2022/01/17 06:33:50;;;;;;;0.40;0.30;;;;;;;6.11;99.55;101154.66;5094492;28;20468;-74
2022/01/17 06:36:18;;;;;;;0.40;0.30;;;;;;;6.09;99.95;101145.19;5095727;28;20451;-74
2022/01/17 06:38:44;;;;;;;0.40;0.30;;;;;;;6.10;100.00;101131.47;5094923;28;20436;-74
2022/01/17 06:41:11;;;;;;;0.40;0.30;;;;;;;6.06;100.00;101085.50;5094979;28;20447;-74
2022/01/17 06:43:37;;;;;;;0.40;0.27;;;;;;;6.04;100.00;101081.44;5097835;28;20876;-73
2022/01/17 06:46:04;;;;;;;0.40;0.20;;;;;;;5.97;100.00;101057.44;5098853;28;20441;-74
2022/01/17 06:48:30;;;;;;;0.40;0.30;;;;;;;5.97;100.00;101062.81;5095385;28;20448;-74
2022/01/17 06:50:57;;;;;;;0.40;0.30;;;;;;;5.94;100.00;101090.25;5094475;28;20448;-75
2022/01/17 06:53:27;;;;;;;0.40;0.30;;;;;;;5.89;100.00;101071.34;5093102;28;20476;-74
2022/01/17 06:55:53;;;;;;;0.40;0.30;;;;;;;5.90;100.00;101081.03;5093804;28;20491;-75
2022/01/17 06:58:20;;;;;;;0.40;0.30;;;;;;;5.92;100.00;101092.34;5093952;28;20452;-75
2022/01/17 07:00:47;;;;;;;0.40;0.30;;;;;;;5.86;100.00;101114.06;5093916;28;20440;-74
2022/01/17 07:03:14;;;;;;;0.40;0.30;;;;;;;5.82;100.00;101128.00;5093535;28;20479;-74
2022/01/17 07:05:40;;;;;;;0.40;0.20;;;;;;;5.84;100.00;101119.69;5093860;28;20440;-74
2022/01/17 07:08:07;;;;;;;0.40;0.30;;;;;;;5.80;100.00;101116.72;5093814;28;20436;-74
2022/01/17 07:10:35;;;;;;;0.40;0.30;;;;;;;5.81;100.00;101112.97;5093796;28;20471;-74
2022/01/17 07:13:01;;;;;;;0.40;0.20;;;;;;;5.78;100.00;101124.22;5093716;28;20541;-74
2022/01/17 07:15:27;;;;;;;0.40;0.27;;;;;;;5.78;100.00;101108.09;5093606;28;20484;-75
2022/01/17 07:17:54;;;;;;;0.40;0.20;;;;;;;5.74;100.00;101090.84;5093691;28;20440;-75
2022/01/17 07:20:20;;;;;;;0.40;0.20;;;;;;;5.74;100.00;101096.22;5093256;28;20950;-73
2022/01/17 07:22:47;;;;;;;0.40;0.20;;;;;;;5.73;100.00;101101.88;5093564;28;20494;-75
2022/01/17 07:25:13;;;;;;;0.40;0.27;;;;;;;5.71;100.00;101069.88;5093560;28;20436;-75
2022/01/17 07:27:42;;;;;;;0.40;0.30;;;;;;;5.73;100.00;101062.34;5093526;28;20449;-73
2022/01/17 07:30:12;;;;;;;0.40;0.20;;;;;;;5.74;100.00;101072.03;5093147;28;20942;-75
2022/01/17 07:32:38;;;;;;;0.40;0.20;;;;;;;5.76;100.00;101069.09;5093397;28;20448;-75
2022/01/17 07:35:06;;;;;;;0.40;0.30;;;;;;;5.78;100.00;101045.44;5093311;28;20504;-75
2022/01/17 07:37:33;;;;;;;0.40;0.30;;;;;;;5.79;100.00;101039.00;5093429;28;20444;-74
2022/01/17 07:40:00;;;;;;;0.40;0.30;;;;;;;5.81;100.00;101040.38;5093428;28;20436;-74
2022/01/17 07:42:26;;;;;;;0.40;0.30;;;;;;;5.83;100.00;101083.94;5093297;28;20460;-74
2022/01/17 07:44:56;;;;;;;0.40;0.30;;;;;;;5.83;100.00;101075.06;5093351;28;20437;-74
2022/01/17 07:47:38;;;;;;;0.40;0.30;;;;;;;5.88;100.00;101083.16;5093262;28;20440;-74
2022/01/17 07:50:05;;;;;;;0.40;0.30;;;;;;;5.90;100.00;101056.84;5093364;28;20437;-74
2022/01/17 07:52:32;;;;;;;0.40;0.40;;;;;;;5.88;100.00;101053.59;5093182;28;20460;-76
2022/01/17 07:54:58;;;;;;;0.40;0.30;;;;;;;5.90;100.00;101056.03;5093191;28;20828;-76
2022/01/17 07:57:25;;;;;;;0.40;0.23;;;;;;;5.88;100.00;101068.91;5093311;28;20462;-75
2022/01/17 07:59:51;;;;;;;0.40;0.30;;;;;;;5.92;100.00;101061.97;5093252;28;20847;-75
2022/01/17 08:02:19;;;;;;;0.40;0.30;;;;;;;5.93;100.00;101068.97;5092852;28;20843;-75
2022/01/17 08:04:45;;;;;;;0.40;0.30;;;;;;;5.99;100.00;101055.31;5093409;28;20424;-75
2022/01/17 08:07:12;;;;;;;0.40;0.20;;;;;;;6.04;100.00;101068.78;5097415;28;20444;-75
2022/01/17 08:09:38;;;;;;;0.40;0.20;;;;;;;5.99;100.00;101054.50;5097478;28;20443;-74
2022/01/17 08:12:08;;;;;;;0.40;0.30;;;;;;;6.01;100.00;101057.75;5097194;28;20467;-73
2022/01/17 08:14:35;;;;;;;0.40;0.30;;;;;;;5.99;100.00;101062.56;5097051;28;20480;-75
2022/01/17 08:17:02;;;;;;;0.40;0.30;;;;;;;5.97;100.00;101030.56;5096759;28;20867;-73
2022/01/17 08:19:30;;;;;;;0.40;0.30;;;;;;;5.99;100.00;101033.81;5097085;28;20444;-75
2022/01/17 08:21:56;;;;;;;0.40;0.30;;;;;;;5.99;100.00;101019.56;5097030;28;20452;-75
2022/01/17 08:24:23;;;;;;;0.40;0.30;;;;;;;5.99;100.00;101023.06;5096873;28;20566;-76
2022/01/17 08:26:50;;;;;;;0.40;0.20;;;;;;;5.99;100.00;101025.75;5096887;28;20459;-74
2022/01/17 08:29:18;;;;;;;0.40;0.30;;;;;;;5.97;100.00;101033.25;5096870;28;20531;-75
2022/01/17 08:31:47;;;;;;;0.40;0.27;;;;;;;5.99;100.00;101017.69;5096803;28;20444;-74
2022/01/17 08:34:13;;;;;;;0.40;0.30;;;;;;;5.97;100.00;101022.50;5096637;28;20459;-74
2022/01/17 08:36:41;;;;;;;0.40;0.27;;;;;;;6.01;100.00;101022.78;5096674;28;20488;-74
2022/01/17 08:39:09;;;;;;;0.40;0.30;;;;;;;6.02;100.00;101017.16;5096678;28;20455;-74
2022/01/17 08:41:36;;;;;;;0.40;0.30;;;;;;;6.03;100.00;101023.34;5096637;28;20497;-74
2022/01/17 08:44:02;;;;;;;0.40;0.20;;;;;;;6.03;100.00;101034.91;5096498;28;20489;-76
2022/01/17 08:46:29;;;;;;;0.40;0.20;;;;;;;6.01;100.00;101057.75;5096358;28;20433;-76
2022/01/17 08:48:55;;;;;;;0.40;0.30;;;;;;;6.04;100.00;101070.69;5096568;28;20444;-76
2022/01/17 08:51:21;;;;;;;0.40;0.30;;;;;;;6.02;100.00;101075.50;5096149;28;20501;-76
2022/01/17 08:53:49;;;;;;;0.40;0.27;;;;;;;6.03;100.00;101063.69;5096335;28;20456;-76
2022/01/17 08:56:16;;;;;;;0.40;0.30;;;;;;;6.04;100.00;101076.06;5096298;28;20480;-75
2022/01/17 08:58:42;;;;;;;0.40;0.30;;;;;;;6.09;100.00;101061.84;5096306;28;20449;-75
2022/01/17 09:01:13;;;;;;;0.40;0.30;;;;;;;6.11;100.00;101078.50;5096244;28;20441;-75
2022/01/17 09:03:40;;;;;;;0.40;0.27;;;;;;;6.14;100.00;101083.38;5095806;28;20480;-74
2022/01/17 09:06:06;;;;;;;0.53;0.53;;;;;;;6.10;100.00;101056.19;5096155;28;20444;-73
2022/01/17 09:08:33;;;;;;;0.40;0.20;;;;;;;6.05;100.00;101037.34;5096099;28;20443;-72
2022/01/17 09:11:01;;;;;;;0.40;0.20;;;;;;;6.04;100.00;101047.28;5095744;28;20440;-72
2022/01/17 09:13:27;;;;;;;0.40;0.30;;;;;;;6.04;100.00;101033.03;5095932;28;20467;-73
2022/01/17 09:15:54;;;;;;;0.40;0.20;;;;;;;6.01;100.00;101037.03;5095878;28;20484;-73
2022/01/17 09:18:20;;;;;;;0.40;0.20;;;;;;;6.04;100.00;101041.09;5095009;28;20444;-72
2022/01/17 09:20:47;;;;;;;0.40;0.20;;;;;;;6.10;100.00;101045.44;5095882;28;20797;-72
2022/01/17 09:23:14;;;;;;;0.40;0.30;;;;;;;6.13;100.00;101074.50;5095703;28;20472;-73
2022/01/17 09:25:41;;;;;;;0.40;0.30;;;;;;;6.11;100.00;101063.22;5095503;28;20625;-73
2022/01/17 09:28:09;;;;;;;0.40;0.23;;;;;;;6.18;100.00;101073.72;5095437;28;20922;-74
2022/01/17 09:30:36;;;;;;;0.40;0.30;;;;;;;6.19;100.00;101078.84;5095344;28;20945;-72
2022/01/17 09:33:03;;;;;;;0.40;0.30;;;;;;;6.19;100.00;101092.28;5095567;28;20872;-73
2022/01/17 09:35:30;;;;;;;0.40;0.20;;;;;;;6.16;100.00;101095.50;5095484;28;20534;-72
2022/01/17 09:37:57;;;;;;;0.40;0.30;;;;;;;6.20;100.00;101120.81;5095527;28;20449;-73
2022/01/17 09:40:24;;;;;;;0.40;0.20;;;;;;;6.24;100.00;101124.63;5095483;28;20444;-74
2022/01/17 09:42:50;;;;;;;0.40;0.30;;;;;;;6.27;100.00;101126.78;5095385;28;20465;-74
2022/01/17 09:45:20;;;;;;;0.40;0.27;;;;;;;6.27;100.00;101148.28;5095362;28;20443;-76
2022/01/17 09:47:47;;;;;;;0.40;0.23;;;;;;;6.29;100.00;101151.56;5095355;28;20929;-73
2022/01/17 09:50:19;;;;;;;0.40;0.30;;;;;;;6.26;100.00;101165.50;5095432;28;20444;-73
2022/01/17 09:52:48;;;;;;;0.40;0.20;;;;;;;6.23;100.00;101192.91;5095240;28;20468;-72
2022/01/17 09:55:20;;;;;;;0.40;0.23;;;;;;;6.20;100.00;101235.69;5095114;28;20475;-72
2022/01/17 09:57:51;;;;;;;0.40;0.30;;;;;;;6.21;100.00;101218.47;5095325;28;20417;-74
2022/01/17 10:00:24;;;;;;;0.40;0.30;;;;;;;6.08;100.00;101262.72;5095107;28;20467;-73
2022/01/17 10:02:51;;;;;;;0.40;0.20;;;;;;;5.93;100.00;101243.72;5094798;28;20559;-72
2022/01/17 10:05:17;;;;;;;0.40;0.20;;;;;;;5.90;100.00;101258.47;5094768;28;21018;-72
2022/01/17 10:07:56;;;;;;;0.40;0.30;;;;;;;5.68;100.00;101258.50;5094951;28;20448;-72
2022/01/17 10:10:56;;;;;;;0.40;0.27;;;;;;;5.51;100.00;101271.19;5094841;28;20484;-72
2022/01/17 10:13:25;;;;;;;0.40;0.20;;;;;;;5.48;100.00;101285.13;5050508;28;20954;-73
2022/01/17 10:16:02;;;;;;;0.40;0.30;;;;;;;5.35;100.00;101280.13;5096064;28;20488;-73
2022/01/17 10:18:32;;;;;;;0.40;0.20;;;;;;;5.34;100.00;101294.63;5094596;28;20442;-72
2022/01/17 10:21:03;;;;;;;0.40;0.30;;;;;;;5.31;100.00;101271.72;5094458;28;20955;-73
2022/01/17 10:24:02;;;;;;;0.40;0.20;;;;;;;5.31;100.00;101275.25;5094648;28;20453;-73
2022/01/17 10:26:51;;;;;;;0.40;0.30;;;;;;;5.35;100.00;101294.34;5094656;28;20832;-73
2022/01/17 10:34:54;;;;;;;0.40;0.30;;;;;;;5.46;100.00;101304.19;5094268;28;20975;-73
2022/01/17 10:37:22;;;;;;;0.40;0.20;;;;;;;5.54;100.00;101322.56;5094034;28;20456;-73
2022/01/17 10:39:54;;;;;;;0.40;0.27;;;;;;;5.60;100.00;101336.88;5094044;28;20448;-72
2022/01/17 10:42:30;;;;;;;0.40;0.30;;;;;;;5.63;100.00;101347.13;5094179;28;20453;-72
2022/01/17 10:45:03;;;;;;;0.40;0.20;;;;;;;5.70;100.00;101353.13;5094052;28;20992;-73
2022/01/17 10:47:32;;;;;;;0.40;0.30;;;;;;;5.75;100.00;101345.13;5093571;28;20472;-72
2022/01/17 10:50:01;;;;;;;0.40;0.30;;;;;;;5.84;100.00;101353.56;5093309;28;20452;-73
2022/01/17 10:52:33;;;;;;;0.40;0.30;;;;;;;5.89;100.00;101350.13;5093157;28;20464;-73
2022/01/17 10:55:01;;;;;;;0.40;0.20;;;;;;;5.85;100.00;101367.84;5093461;28;20429;-71
2022/01/17 10:57:33;;;;;;;0.40;0.30;;;;;;;5.89;100.00;101369.78;5093348;28;20488;-72
2022/01/17 11:00:00;;;;;;;0.40;0.30;;;;;;;5.99;100.00;101387.94;5093462;28;20437;-72
2022/01/17 11:02:27;;;;;;;0.40;0.30;;;;;;;6.10;100.00;101386.16;5093065;28;20487;-71
2022/01/17 11:04:55;;;;;;;0.40;0.23;;;;;;;6.15;100.00;101375.47;5093358;28;20440;-71
2022/01/17 11:07:21;;;;;;;0.40;0.30;;;;;;;6.23;100.00;101383.91;5093163;28;20444;-71
2022/01/17 11:09:50;;;;;;;0.40;0.30;;;;;;;6.26;100.00;101385.28;5093187;28;20459;-71
2022/01/17 11:12:18;;;;;;;0.40;0.30;;;;;;;6.23;100.00;101391.97;5093115;28;20440;-71
2022/01/17 11:14:45;;;;;;;0.40;0.30;;;;;;;6.12;100.00;101386.75;5093093;28;20441;-71
2022/01/17 11:17:21;;;;;;;0.40;0.30;;;;;;;6.16;100.00;101410.19;5092949;28;20480;-72
2022/01/17 11:20:04;;;;;;;0.40;0.27;;;;;;;6.25;100.00;101416.75;5092808;28;21016;-71
2022/01/17 11:22:32;;;;;;;0.40;0.30;;;;;;;6.20;100.00;101423.97;5092930;28;20468;-72
2022/01/17 11:24:59;;;;;;;0.40;0.30;;;;;;;6.27;100.00;101421.88;5092900;28;20489;-71
2022/01/17 11:27:26;;;;;;;0.40;0.30;;;;;;;6.22;100.00;101479.13;5092955;28;20433;-72
2022/01/17 11:29:53;;;;;;;0.40;0.30;;;;;;;5.97;100.00;101492.22;5092847;28;20448;-70
2022/01/17 11:32:19;;;;;;;0.40;0.30;;;;;;;5.78;100.00;101500.53;5092780;28;20475;-70
2022/01/17 11:34:46;;;;;;;0.40;0.23;;;;;;;5.46;100.00;101518.31;5092838;28;20444;-71
2022/01/17 11:37:13;;;;;;;0.40;0.30;;;;;;;5.01;100.00;101533.38;5092750;28;20475;-71
2022/01/17 11:39:47;;;;;;;0.40;0.30;;;;;;;4.85;100.00;101546.75;5092357;28;20437;-70
2022/01/17 11:42:31;;;;;;;0.40;0.30;;;;;;;4.44;100.00;101543.25;5092770;28;20428;-70
2022/01/17 11:44:58;;;;;;;0.40;0.20;;;;;;;4.21;100.00;101539.56;5092801;28;20452;-70